Terminal Aerodrome Forecast
Issued by NWS Paducah, KY

Home | Current Version | Previous Version | Text Only | Print | Product List | Glossary On
Versions: 1 2 3 4 5 6 7 8 9 10 11 12 13
000
FTUS43 KPAH 182300
TAFPAH
TAF
KPAH 182320Z 1900/1924 19005KT P6SM SCT150
     FM190800 18010KT P6SM SCT080 BKN150
     FM191400 22012G20KT P6SM BKN080
     FM191900 24015G25KT P6SM SCT030 BKN060
     FM192300 27010KT P6SM SCT060=

USA.gov is the U.S. government's official web portal to all federal, state and local government web resources and services.